createdAt,value
2018-12-05T00:00:06.992Z,30.80
2018-12-05T00:02:35.395Z,31.73
2018-12-05T00:05:04.060Z,25.80
2018-12-05T00:07:32.484Z,33.42
2018-12-05T00:10:00.922Z,25.52
2018-12-05T00:12:29.368Z,36.42
2018-12-05T00:14:57.775Z,34.33
2018-12-05T00:17:26.224Z,30.45
2018-12-05T00:19:54.637Z,31.55
2018-12-05T00:22:23.055Z,31.57
2018-12-05T00:24:51.468Z,29.40
2018-12-05T00:27:20.088Z,30.90
2018-12-05T00:29:48.516Z,24.98
2018-12-05T00:32:16.927Z,51.90
2018-12-05T00:34:45.342Z,35.23
2018-12-05T00:37:13.756Z,33.90
2018-12-05T00:39:42.177Z,29.92
2018-12-05T00:42:10.724Z,36.98
2018-12-05T00:44:39.156Z,34.98
2018-12-05T00:47:09.504Z,35.25
2018-12-05T00:49:37.927Z,33.13
2018-12-05T00:52:06.710Z,36.50
2018-12-05T00:54:35.225Z,41.48
2018-12-05T00:57:03.637Z,38.65
2018-12-05T00:59:32.063Z,32.48
2018-12-05T01:02:00.591Z,38.83
2018-12-05T01:04:29.155Z,38.88
2018-12-05T01:06:57.547Z,27.95
2018-12-05T01:09:25.986Z,34.53
2018-12-05T01:11:54.403Z,42.13
2018-12-05T01:14:22.841Z,44.27
2018-12-05T01:16:51.257Z,37.25
2018-12-05T01:19:19.673Z,57.83
2018-12-05T01:21:48.114Z,32.80
2018-12-05T01:24:16.520Z,45.75
2018-12-05T01:26:44.944Z,43.65
2018-12-05T01:29:13.400Z,46.42
2018-12-05T01:31:41.832Z,43.28
2018-12-05T01:34:10.249Z,52.45
2018-12-05T01:36:38.641Z,35.63
2018-12-05T01:39:07.987Z,56.58
2018-12-05T01:41:36.384Z,54.45
2018-12-05T01:44:05.192Z,45.95
2018-12-05T01:46:33.599Z,80.32
2018-12-05T01:49:02.048Z,52.40
2018-12-05T01:51:30.453Z,55.52
2018-12-05T01:53:58.855Z,45.28
2018-12-05T01:56:27.282Z,80.17
2018-12-05T01:58:55.803Z,87.85
2018-12-05T02:01:24.224Z,50.05
2018-12-05T02:03:53.292Z,61.73
2018-12-05T02:06:21.936Z,68.67
2018-12-05T02:08:50.423Z,74.27
2018-12-05T02:11:18.873Z,73.75
2018-12-05T02:13:47.332Z,58.08
2018-12-05T02:16:15.727Z,77.92
2018-12-05T02:18:44.175Z,101.10
2018-12-05T02:21:12.581Z,133.07
2018-12-05T02:23:41.029Z,63.40
2018-12-05T02:26:09.448Z,81.40
2018-12-05T02:28:37.880Z,106.95
2018-12-05T02:31:06.322Z,73.25
2018-12-05T02:33:34.728Z,138.50
2018-12-05T02:36:03.159Z,65.78
2018-12-05T02:38:31.559Z,150.87
2018-12-05T02:41:00.005Z,101.18
2018-12-05T02:43:28.532Z,45.23
2018-12-05T02:45:56.954Z,66.35
2018-12-05T02:48:25.378Z,62.95
2018-12-05T02:50:53.788Z,56.33
2018-12-05T02:53:22.191Z,52.85
2018-12-05T02:55:50.630Z,65.80
2018-12-05T02:58:19.047Z,52.67
2018-12-05T03:00:47.565Z,46.28
2018-12-05T03:03:15.983Z,40.52
2018-12-05T03:05:44.403Z,41.18
2018-12-05T03:08:12.951Z,46.70
2018-12-05T03:10:41.351Z,48.28
2018-12-05T03:13:09.782Z,47.83
2018-12-05T03:15:38.216Z,44.38
2018-12-05T03:18:06.639Z,49.23
2018-12-05T03:20:35.108Z,50.17
2018-12-05T03:23:03.494Z,45.03
2018-12-05T03:25:31.932Z,48.68
2018-12-05T03:28:00.319Z,51.25
2018-12-05T03:30:28.719Z,56.02
2018-12-05T03:32:57.464Z,55.25
2018-12-05T03:35:31.032Z,56.68
2018-12-05T03:37:59.520Z,52.73
2018-12-05T03:40:27.936Z,46.77
2018-12-05T03:42:56.375Z,55.30
2018-12-05T03:45:24.800Z,58.48
2018-12-05T03:47:53.325Z,93.65
2018-12-05T03:50:21.760Z,97.10
2018-12-05T03:52:50.341Z,152.85
2018-12-05T03:55:20.188Z,189.52
2018-12-05T03:57:48.822Z,76.45
2018-12-05T04:00:17.227Z,126.22
2018-12-05T04:02:45.652Z,100.18
2018-12-05T04:05:14.052Z,123.40
2018-12-05T04:07:42.460Z,155.97
2018-12-05T04:10:10.895Z,102.07
2018-12-05T04:12:40.746Z,68.20
2018-12-05T04:15:09.598Z,87.82
2018-12-05T04:17:38.004Z,60.73
2018-12-05T04:20:06.558Z,63.70
2018-12-05T04:22:34.972Z,66.02
2018-12-05T04:25:03.512Z,65.90
2018-12-05T04:27:32.089Z,61.45
2018-12-05T04:30:00.505Z,67.08
2018-12-05T04:32:28.909Z,57.55
2018-12-05T04:34:57.323Z,65.05
2018-12-05T04:37:25.765Z,68.00
2018-12-05T04:39:54.212Z,50.90
2018-12-05T04:42:22.613Z,52.38
2018-12-05T04:44:51.057Z,56.35
2018-12-05T04:47:19.476Z,53.20
2018-12-05T04:49:47.892Z,50.60
2018-12-05T04:52:16.327Z,40.43
2018-12-05T04:54:44.725Z,52.95
2018-12-05T04:57:13.165Z,44.10
2018-12-05T04:59:41.565Z,45.80
2018-12-05T05:02:10.045Z,46.73
2018-12-05T05:04:38.453Z,45.70
2018-12-05T05:07:07.156Z,53.35
2018-12-05T05:09:35.699Z,46.23
2018-12-05T05:12:04.119Z,48.17
2018-12-05T05:14:32.542Z,32.28
2018-12-05T05:17:00.949Z,44.83
2018-12-05T05:19:29.381Z,38.50
2018-12-05T05:21:57.783Z,45.98
2018-12-05T05:24:26.215Z,34.40
2018-12-05T05:26:54.626Z,36.25
2018-12-05T05:29:23.057Z,27.85
2018-12-05T05:31:51.496Z,38.30
2018-12-05T05:34:19.908Z,34.25
2018-12-05T05:36:48.326Z,23.57
2018-12-05T05:39:16.760Z,24.18
2018-12-05T05:41:45.171Z,27.70
2018-12-05T05:44:13.568Z,21.73
2018-12-05T05:46:41.983Z,26.75
2018-12-05T05:49:10.484Z,24.32
2018-12-05T05:51:38.900Z,19.98
2018-12-05T05:54:07.299Z,21.60
2018-12-05T05:56:35.727Z,25.15
2018-12-05T05:59:04.259Z,30.40
2018-12-05T06:01:32.676Z,21.85
2018-12-05T06:04:01.115Z,24.23
2018-12-05T06:06:29.567Z,37.88
2018-12-05T06:08:57.976Z,24.12
2018-12-05T06:11:26.373Z,29.67
2018-12-05T06:13:54.793Z,25.08
2018-12-05T06:16:23.201Z,22.62
2018-12-05T06:18:51.613Z,20.97
2018-12-05T06:21:20.012Z,25.27
2018-12-05T06:23:48.419Z,26.02
2018-12-05T06:26:16.863Z,21.02
2018-12-05T06:28:45.303Z,20.88
2018-12-05T06:31:13.691Z,24.43
2018-12-05T06:33:42.096Z,27.87
2018-12-05T06:36:10.531Z,24.65
2018-12-05T06:38:38.967Z,27.73
2018-12-05T06:41:07.377Z,27.77
2018-12-05T06:43:35.827Z,17.05
2018-12-05T06:46:04.267Z,19.23
2018-12-05T06:48:32.694Z,15.20
2018-12-05T06:51:01.136Z,25.00
2018-12-05T06:53:29.548Z,27.15
2018-12-05T06:55:57.973Z,22.02
2018-12-05T06:58:26.391Z,24.43
2018-12-05T07:00:54.979Z,29.35
2018-12-05T07:03:23.394Z,30.75
2018-12-05T07:05:51.820Z,19.23
2018-12-05T07:08:21.155Z,23.22
2018-12-05T07:10:49.582Z,15.83
2018-12-05T07:13:17.989Z,20.50
2018-12-05T07:15:46.434Z,28.42
2018-12-05T07:18:14.873Z,19.23
2018-12-05T07:20:43.296Z,20.35
2018-12-05T07:23:11.704Z,27.20
2018-12-05T07:25:41.104Z,26.85
2018-12-05T07:28:09.527Z,20.30
2018-12-05T07:30:37.923Z,24.98
2018-12-05T07:33:06.499Z,17.90
2018-12-05T07:35:35.048Z,21.60
2018-12-05T07:38:03.490Z,15.60
2018-12-05T07:40:31.908Z,14.87
2018-12-05T07:43:00.331Z,23.20
2018-12-05T07:45:29.967Z,17.02
2018-12-05T07:47:58.391Z,17.15
2018-12-05T07:50:26.820Z,18.00
2018-12-05T07:52:55.286Z,18.48
2018-12-05T07:55:23.687Z,15.18
2018-12-05T07:57:52.166Z,13.53
2018-12-05T08:00:20.569Z,13.72
2018-12-05T08:02:49.755Z,19.60
2018-12-05T08:05:18.358Z,21.90
2018-12-05T08:07:47.836Z,22.02
2018-12-05T08:10:16.335Z,18.87
2018-12-05T08:12:44.759Z,20.97
2018-12-05T08:15:13.180Z,11.48
2018-12-05T08:17:41.571Z,10.50
2018-12-05T08:20:10.102Z,16.55
2018-12-05T08:22:39.509Z,18.90
2018-12-05T08:25:08.072Z,17.57
2018-12-05T08:27:36.493Z,24.43
2018-12-05T08:30:05.476Z,13.40
2018-12-05T08:32:33.891Z,18.70
2018-12-05T08:35:02.461Z,16.12
2018-12-05T08:37:30.994Z,20.00
2018-12-05T08:39:59.457Z,21.23
2018-12-05T08:42:28.197Z,16.27
2018-12-05T08:44:56.684Z,15.70
2018-12-05T08:47:25.115Z,14.23
2018-12-05T08:49:53.661Z,19.27
2018-12-05T08:52:22.094Z,15.45
2018-12-05T08:54:50.531Z,19.12
2018-12-05T08:57:18.922Z,15.38
2018-12-05T08:59:48.398Z,29.77
2018-12-05T09:02:23.566Z,23.67
2018-12-05T09:04:52.004Z,23.32
2018-12-05T09:07:20.422Z,17.67
2018-12-05T09:09:48.829Z,22.50
2018-12-05T09:12:17.280Z,13.55
2018-12-05T09:14:45.758Z,12.82
2018-12-05T09:17:14.181Z,19.32
2018-12-05T09:19:42.602Z,17.65
2018-12-05T09:22:11.045Z,25.43
2018-12-05T09:24:39.456Z,27.05
2018-12-05T09:27:07.875Z,15.23
2018-12-05T09:29:37.124Z,30.72
2018-12-05T09:32:05.587Z,20.50
2018-12-05T09:34:34.036Z,14.55
2018-12-05T09:37:02.449Z,16.82
2018-12-05T09:39:30.880Z,23.85
2018-12-05T09:41:59.338Z,17.60
2018-12-05T09:44:27.796Z,22.35
2018-12-05T09:46:56.254Z,16.17
2018-12-05T09:49:24.657Z,26.85
2018-12-05T09:51:53.110Z,21.42
2018-12-05T09:54:21.525Z,26.82
2018-12-05T09:56:49.971Z,18.70
2018-12-05T09:59:18.387Z,29.25
2018-12-05T10:01:46.962Z,17.87
2018-12-05T10:04:15.393Z,20.23
2018-12-05T10:06:43.810Z,21.30
2018-12-05T10:09:12.297Z,21.40
2018-12-05T10:11:40.755Z,25.92
2018-12-05T10:14:09.212Z,20.25
2018-12-05T10:16:37.663Z,21.07
2018-12-05T10:19:06.208Z,28.30
2018-12-05T10:21:34.629Z,20.87
2018-12-05T10:24:03.215Z,20.70
2018-12-05T10:26:31.672Z,37.17
2018-12-05T10:29:00.107Z,22.13
2018-12-05T10:31:28.496Z,30.73
2018-12-05T10:33:56.911Z,23.70
2018-12-05T10:36:25.324Z,24.57
2018-12-05T10:38:53.764Z,24.73
2018-12-05T10:41:22.207Z,40.30
2018-12-05T10:43:50.644Z,43.23
2018-12-05T10:46:19.394Z,15.83
2018-12-05T10:48:47.815Z,18.90
2018-12-05T10:51:16.276Z,20.00
2018-12-05T10:53:44.702Z,22.07
2018-12-05T10:56:13.132Z,26.00
2018-12-05T10:58:41.772Z,23.93
2018-12-05T11:01:15.452Z,20.50
2018-12-05T11:03:43.883Z,26.47
2018-12-05T11:06:17.608Z,23.03
2018-12-05T11:08:51.215Z,13.53
2018-12-05T11:11:24.838Z,16.65
2018-12-05T11:13:58.734Z,23.83
2018-12-05T11:16:32.589Z,29.97
2018-12-05T11:19:06.278Z,27.80
2018-12-05T11:21:39.933Z,22.03
2018-12-05T11:24:12.493Z,21.30
2018-12-05T11:26:41.167Z,20.03
2018-12-05T11:29:09.951Z,27.10
2018-12-05T11:31:38.412Z,26.83
2018-12-05T11:34:06.874Z,28.80
2018-12-05T11:36:35.319Z,22.27
2018-12-05T11:39:05.233Z,18.23
2018-12-05T11:41:33.657Z,21.07
2018-12-05T11:44:02.084Z,21.83
2018-12-05T11:46:30.525Z,25.43
2018-12-05T11:48:58.968Z,31.47
2018-12-05T11:51:27.533Z,26.20
2018-12-05T11:53:56.056Z,32.43
2018-12-05T11:56:24.469Z,28.93
2018-12-05T11:58:52.921Z,24.10
2018-12-05T12:01:21.359Z,21.50
2018-12-05T12:03:50.624Z,23.70
2018-12-05T12:06:19.100Z,32.67
2018-12-05T12:08:47.524Z,19.63
2018-12-05T12:11:16.219Z,23.70
2018-12-05T12:13:44.639Z,24.47
2018-12-05T12:16:13.112Z,22.57
2018-12-05T12:18:41.563Z,21.00
2018-12-05T12:21:10.124Z,28.63
2018-12-05T12:23:38.604Z,25.07
2018-12-05T12:26:07.117Z,26.43
2018-12-05T12:28:35.551Z,20.70
2018-12-05T12:31:04.015Z,21.30
2018-12-05T12:33:32.449Z,31.27
2018-12-05T12:36:00.875Z,23.20
2018-12-05T12:38:29.318Z,19.60
2018-12-05T12:40:57.801Z,26.10
2018-12-05T12:43:26.216Z,19.97
2018-12-05T12:45:54.684Z,22.03
2018-12-05T12:48:23.100Z,20.30
2018-12-05T12:50:51.531Z,21.60
2018-12-05T12:53:19.972Z,19.27
2018-12-05T12:55:48.405Z,21.33
2018-12-05T12:58:16.830Z,16.47
2018-12-05T13:00:45.256Z,16.90
2018-12-05T13:03:13.708Z,18.77
2018-12-05T13:05:42.132Z,21.10
2018-12-05T13:08:10.560Z,18.90
2018-12-05T13:10:39.279Z,15.53
2018-12-05T13:13:07.718Z,17.97
2018-12-05T13:15:36.153Z,22.77
2018-12-05T13:18:04.596Z,22.77
2018-12-05T13:20:33.029Z,26.30
2018-12-05T13:23:01.511Z,16.50
2018-12-05T13:25:29.911Z,25.77
2018-12-05T13:27:58.347Z,22.10
2018-12-05T13:30:26.772Z,28.33
2018-12-05T13:32:55.344Z,20.97
2018-12-05T13:35:23.772Z,21.07
2018-12-05T13:37:52.198Z,17.20
2018-12-05T13:40:20.647Z,26.03
2018-12-05T13:42:49.270Z,23.00
2018-12-05T13:45:17.900Z,21.27
2018-12-05T13:47:46.342Z,24.10
2018-12-05T13:50:14.879Z,21.30
2018-12-05T13:52:43.309Z,21.20
2018-12-05T13:55:11.724Z,13.20
2018-12-05T13:57:40.256Z,24.00
2018-12-05T14:00:09.327Z,26.57
2018-12-05T14:02:37.812Z,19.70
2018-12-05T14:05:06.464Z,26.37
2018-12-05T14:07:34.900Z,29.20
2018-12-05T14:10:03.477Z,23.73
2018-12-05T14:12:36.144Z,21.80
2018-12-05T14:15:05.011Z,23.70
2018-12-05T14:17:33.427Z,20.43
2018-12-05T14:20:08.912Z,25.93
2018-12-05T14:22:37.352Z,20.77
2018-12-05T14:25:07.377Z,25.47
2018-12-05T14:27:35.861Z,32.43
2018-12-05T14:30:05.435Z,28.33
2018-12-05T14:32:33.886Z,20.47
2018-12-05T14:35:02.377Z,26.13
2018-12-05T14:37:30.784Z,22.70
2018-12-05T14:39:59.220Z,26.20
2018-12-05T14:42:27.686Z,19.43
2018-12-05T14:44:56.151Z,27.27
2018-12-05T14:47:24.561Z,22.90
2018-12-05T14:49:53.022Z,23.87
2018-12-05T14:52:21.445Z,21.87
2018-12-05T14:54:49.964Z,28.03
2018-12-05T14:57:18.420Z,27.80
2018-12-05T14:59:46.885Z,20.60
2018-12-05T15:02:15.307Z,22.43
2018-12-05T15:04:43.771Z,31.30
2018-12-05T15:07:12.277Z,22.57
2018-12-05T15:09:40.704Z,25.20
2018-12-05T15:12:09.127Z,26.90
2018-12-05T15:14:37.533Z,22.77
2018-12-05T15:17:05.964Z,36.30
2018-12-05T15:19:34.417Z,26.37
2018-12-05T15:22:02.995Z,18.03
2018-12-05T15:24:31.403Z,32.07
2018-12-05T15:26:59.877Z,24.23
2018-12-05T15:29:28.540Z,22.50
2018-12-05T15:31:57.041Z,34.10
2018-12-05T15:34:25.553Z,20.77
2018-12-05T15:36:53.977Z,28.20
2018-12-05T15:39:22.384Z,24.80
2018-12-05T15:41:50.808Z,26.27
2018-12-05T15:44:19.251Z,23.33
2018-12-05T15:46:54.259Z,25.10
2018-12-05T15:49:22.698Z,28.40
2018-12-05T15:51:51.130Z,31.67
2018-12-05T15:54:19.582Z,23.73
2018-12-05T15:56:48.007Z,27.13
2018-12-05T15:59:16.407Z,31.03
2018-12-05T16:01:45.073Z,36.63
2018-12-05T16:04:13.508Z,24.53
2018-12-05T16:06:41.918Z,26.57
2018-12-05T16:09:10.359Z,34.13
2018-12-05T16:11:38.813Z,26.43
2018-12-05T16:14:07.305Z,26.33
2018-12-05T16:16:35.700Z,24.10
2018-12-05T16:19:04.161Z,29.93
2018-12-05T16:21:32.574Z,24.20
2018-12-05T16:24:01.123Z,20.60
2018-12-05T16:26:29.539Z,25.87
2018-12-05T16:28:57.973Z,22.20
2018-12-05T16:31:26.389Z,30.33
2018-12-05T16:33:56.100Z,18.63
2018-12-05T16:36:24.561Z,22.43
2018-12-05T16:38:52.961Z,29.10
2018-12-05T16:41:21.499Z,30.13
2018-12-05T16:43:49.916Z,24.77
2018-12-05T16:46:18.404Z,27.10
2018-12-05T16:48:46.863Z,30.97
2018-12-05T16:51:15.336Z,23.00
2018-12-05T16:53:43.747Z,26.40
2018-12-05T16:56:12.759Z,26.83
2018-12-05T16:58:41.272Z,28.07
2018-12-05T17:01:09.742Z,22.53
2018-12-05T17:03:38.220Z,23.10
2018-12-05T17:06:07.629Z,22.40
2018-12-05T17:08:37.020Z,27.13
2018-12-05T17:11:12.127Z,23.93
2018-12-05T17:13:42.509Z,24.80
2018-12-05T17:16:17.714Z,37.20
2018-12-05T17:18:42.051Z,26.67
2018-12-05T17:21:10.702Z,27.43
2018-12-05T17:23:39.450Z,37.73
2018-12-05T17:26:08.072Z,23.50
2018-12-05T17:28:37.126Z,22.63
2018-12-05T17:31:05.544Z,30.70
2018-12-05T17:33:33.999Z,21.60
2018-12-05T17:36:02.392Z,26.80
2018-12-05T17:38:30.819Z,24.33
2018-12-05T17:40:59.308Z,23.13
2018-12-05T17:43:27.750Z,26.50
2018-12-05T17:45:56.151Z,27.33
2018-12-05T17:48:24.593Z,30.27
2018-12-05T17:50:53.034Z,29.37
2018-12-05T17:53:21.478Z,27.43
2018-12-05T17:55:49.930Z,23.63
2018-12-05T17:58:18.329Z,24.50
2018-12-05T18:00:46.807Z,21.83
2018-12-05T18:03:15.250Z,21.37
2018-12-05T18:05:43.661Z,28.93
2018-12-05T18:08:12.112Z,22.87
2018-12-05T18:10:40.568Z,29.63
2018-12-05T18:13:09.012Z,23.70
2018-12-05T18:15:37.436Z,23.47
2018-12-05T18:18:06.935Z,22.63
2018-12-05T18:20:35.341Z,20.50
2018-12-05T18:23:04.276Z,34.60
2018-12-05T18:25:34.071Z,20.33
2018-12-05T18:28:02.507Z,23.47
2018-12-05T18:30:31.068Z,22.53
2018-12-05T18:32:59.488Z,19.93
2018-12-05T18:35:27.945Z,23.03
2018-12-05T18:37:56.401Z,19.30
2018-12-05T18:40:24.860Z,25.00
2018-12-05T18:42:53.521Z,24.10
2018-12-05T18:45:21.958Z,20.93
2018-12-05T18:47:50.411Z,19.03
2018-12-05T18:50:18.828Z,19.30
2018-12-05T18:52:47.263Z,28.37
2018-12-05T18:55:16.213Z,19.83
2018-12-05T18:57:44.645Z,21.30
2018-12-05T19:00:13.231Z,15.00
2018-12-05T19:02:41.969Z,19.53
2018-12-05T19:05:10.618Z,17.47
2018-12-05T19:07:39.048Z,26.87
2018-12-05T19:10:07.672Z,19.77
2018-12-05T19:12:36.079Z,23.53
2018-12-05T19:15:05.104Z,22.83
2018-12-05T19:17:33.570Z,19.23
2018-12-05T19:20:02.002Z,23.53
2018-12-05T19:22:30.403Z,17.90
2018-12-05T19:24:58.833Z,15.80
2018-12-05T19:27:27.390Z,21.83
2018-12-05T19:29:55.795Z,22.33
2018-12-05T19:32:24.294Z,20.20
2018-12-05T19:34:53.709Z,23.93
2018-12-05T19:37:22.126Z,20.23
2018-12-05T19:39:50.565Z,25.03
2018-12-05T19:42:18.976Z,23.47
2018-12-05T19:44:47.426Z,16.03
2018-12-05T19:47:15.871Z,23.73
2018-12-05T19:49:44.293Z,19.47
2018-12-05T19:52:12.725Z,21.53
2018-12-05T19:54:41.149Z,24.80
2018-12-05T19:57:09.648Z,19.87
2018-12-05T19:59:38.114Z,23.90
2018-12-05T20:02:06.684Z,27.50
2018-12-05T20:04:35.330Z,23.00
2018-12-05T20:07:03.865Z,23.50
2018-12-05T20:09:32.296Z,22.73
2018-12-05T20:12:00.710Z,24.83
2018-12-05T20:14:29.664Z,25.53
2018-12-05T20:16:58.603Z,24.20
2018-12-05T20:19:27.173Z,22.77
2018-12-05T20:21:55.622Z,23.97
2018-12-05T20:24:24.343Z,19.57
2018-12-05T20:26:52.766Z,25.47
2018-12-05T20:29:21.187Z,21.17
2018-12-05T20:31:49.668Z,22.80
2018-12-05T20:34:18.094Z,19.03
2018-12-05T20:36:46.527Z,27.70
2018-12-05T20:39:14.971Z,23.33
2018-12-05T20:41:43.441Z,26.33
2018-12-05T20:44:12.025Z,26.37
2018-12-05T20:46:40.452Z,29.83
2018-12-05T20:49:08.860Z,25.47
2018-12-05T20:51:37.293Z,22.97
2018-12-05T20:54:05.740Z,22.90
2018-12-05T20:56:34.180Z,28.43
2018-12-05T20:59:02.605Z,29.90
2018-12-05T21:01:31.190Z,21.57
2018-12-05T21:03:59.611Z,23.30
2018-12-05T21:06:28.028Z,26.27
2018-12-05T21:08:56.586Z,31.20
2018-12-05T21:11:25.009Z,26.70
2018-12-05T21:13:53.434Z,30.93
2018-12-05T21:16:22.003Z,26.03
2018-12-05T21:18:50.530Z,24.17
2018-12-05T21:21:18.956Z,23.30
2018-12-05T21:23:47.401Z,24.47
2018-12-05T21:26:15.819Z,24.73
2018-12-05T21:28:44.242Z,23.80
2018-12-05T21:31:12.860Z,25.20
2018-12-05T21:33:41.309Z,30.77
2018-12-05T21:36:09.705Z,22.37
2018-12-05T21:38:38.180Z,23.97
2018-12-05T21:41:06.629Z,23.43
2018-12-05T21:43:35.297Z,22.27
2018-12-05T21:46:03.888Z,25.97
2018-12-05T21:48:32.291Z,24.53
2018-12-05T21:51:00.781Z,25.33
2018-12-05T21:53:29.249Z,30.90
2018-12-05T21:55:57.661Z,27.03
2018-12-05T21:58:26.103Z,24.77
2018-12-05T22:00:59.464Z,20.20
2018-12-05T22:03:27.930Z,25.67
2018-12-05T22:05:56.365Z,32.37
2018-12-05T22:08:24.809Z,29.83
2018-12-05T22:10:53.214Z,28.00
2018-12-05T22:13:21.633Z,24.63
2018-12-05T22:15:50.066Z,27.83
2018-12-05T22:18:18.471Z,29.83
2018-12-05T22:20:46.917Z,27.73
2018-12-05T22:23:15.359Z,36.90
2018-12-05T22:25:43.785Z,35.07
2018-12-05T22:28:12.228Z,33.87
2018-12-05T22:30:40.701Z,25.63
2018-12-05T22:33:09.111Z,25.90
2018-12-05T22:35:37.525Z,25.97
2018-12-05T22:38:05.962Z,23.23
2018-12-05T22:40:34.420Z,27.30
2018-12-05T22:43:02.830Z,27.60
2018-12-05T22:45:31.262Z,27.90
2018-12-05T22:47:59.653Z,28.47
2018-12-05T22:50:28.069Z,38.73
2018-12-05T22:52:56.602Z,28.43
2018-12-05T22:55:25.003Z,27.80
2018-12-05T22:57:53.440Z,33.50
2018-12-05T23:00:25.418Z,25.57
2018-12-05T23:02:53.884Z,29.40
2018-12-05T23:05:22.316Z,23.70
2018-12-05T23:07:50.749Z,35.93
2018-12-05T23:10:19.165Z,33.97
2018-12-05T23:12:47.573Z,38.60
2018-12-05T23:15:16.032Z,34.53
2018-12-05T23:17:44.447Z,32.27
2018-12-05T23:20:12.987Z,42.73
2018-12-05T23:22:41.951Z,39.20
2018-12-05T23:25:10.372Z,36.17
2018-12-05T23:27:38.793Z,35.97
2018-12-05T23:30:07.492Z,33.90
2018-12-05T23:32:35.901Z,39.00
2018-12-05T23:35:04.476Z,37.37
2018-12-05T23:37:32.888Z,35.00
2018-12-05T23:40:01.293Z,38.70
2018-12-05T23:42:29.689Z,35.67
2018-12-05T23:44:58.119Z,40.47
2018-12-05T23:47:26.536Z,36.40
2018-12-05T23:49:54.935Z,36.20
2018-12-05T23:52:23.358Z,38.03
2018-12-05T23:54:51.770Z,34.40
2018-12-05T23:57:20.190Z,30.03
2018-12-05T23:59:48.628Z,34.80
